aviador You're here:

NFNA Decoded Metar

NAUSORI in FIJI
Report Time2018-07-22 02:00:00
UTC Time2018-07-22 02:55:54
Flight Rules vfr VFR
Wind070° at 11 kt
W.Decomp.*RWY 10: 8.2 kt HW 7.4 kt LCW
W.Rank070° ranks 11
Current wind is above 070° avg. (7.7)
Visibility9999 m
Phenomena:N/A
Clouds:Scattered 020 Hf
Expected CloudBase > 3,200 ft AGL from Temp-Dew spread
CeilingNone
Temp27°C (ISA +12)
Dew Point19°C (62% RH)
Heat Index28.2°C
AAT26.3°C
QNH1013 hPa
Density Alt1,693 ft
Elevation16 ft
Report Wrong Elevation
Raw Report
METAR NFNA 220200Z 07011KT 9999 SCT020 27/19 Q1013=####018000114####
SAUS41 KCAR 220216
MTR40B

Extra information for NFNA:More info

Metar Taf Metar & Taf Last 4 Metars F.Rules Stats Wind Profile Meteogram Temp Stats Airport Information Weather charts Add Link Nearby VenuesMetar ALERT Operation Metar Decoded Social comments